Marianne — VRFM5 — position and weather

sailwx.info

Track history (hours):
 
Tides and Currents Weather Stations Pressure Air Temp Water Temp Dewpoint Dewpoint Depression Visibility Wind Speed Wind Dir Waves Ship Positions

Marianne

Last reported at 2015-Mar-04 05:14 UTC. Time now 2015-Mar-04 07:07 UTC.
Position N 51°49' E 003°24'.

Length 97 m; draft 5.5 m.

Type: Ship (hazmat cat B). MMSI: 477560836.

Date/timePositionNaut miles runAvg speedWind from/ knotsBaromVisibWave heightAir tempDewpointWater temp
2015-Mar-04 05:14N 51°49' E 003°24'0 0.0
2015-Mar-04 04:04N 51°49' E 003°24'0 0.0
2015-Mar-04 02:25N 51°49' E 003°24'0 0.0
2015-Mar-03 23:13N 51°49' E 003°24'0 0.0
2015-Mar-03 17:14N 51°49' E 003°24'0 0.0
2015-Mar-03 16:16N 51°49' E 003°24'0 0.0
2015-Mar-03 15:31N 51°49' E 003°24'0 0.0
2015-Mar-03 11:25N 51°49' E 003°24'0 0.0
2015-Mar-03 09:17N 51°49' E 003°24'0 0.0
2015-Mar-03 06:25N 51°49' E 003°24'0 0.0
2015-Mar-03 04:16N 51°49' E 003°24'0 0.0
2015-Mar-03 02:23N 51°49' E 003°24'0 0.0
2015-Mar-03 01:23N 51°49' E 003°24'0 0.0
2015-Mar-02 23:20N 51°49' E 003°24'0 0.0
2015-Mar-02 21:28N 51°49' E 003°24'0 0.0
2015-Mar-02 18:23N 51°49' E 003°23'0 0.1
2015-Mar-02 17:16N 51°49' E 003°24'0 0.0
2015-Mar-02 14:19N 51°49' E 003°24'0 0.0
2015-Mar-02 13:07N 51°49' E 003°24'0 0.0
2015-Mar-02 09:07N 51°49' E 003°23'0 0.0
2015-Mar-02 08:29N 51°49' E 003°23'0 0.0
2015-Mar-02 04:31N 51°49' E 003°23'0 0.0
2015-Mar-02 01:20N 51°49' E 003°23'0 0.0
2015-Mar-02 00:29N 51°49' E 003°23'0 0.0
2015-Mar-01 22:22N 51°49' E 003°23'0 0.0
2015-Mar-01 21:23N 51°49' E 003°23'0 0.0
2015-Mar-01 20:28N 51°49' E 003°23'0 0.0
2015-Mar-01 19:25N 51°49' E 003°23'0 0.0
2015-Mar-01 15:16N 51°49' E 003°23'3 1.8
2015-Mar-01 13:32N 51°52' E 003°21'105 7.8
2015-Mar-01 00:08N 53°26' E 004°33'3 4.5
2015-Feb-28 23:28N 53°29' E 004°35'5 5.6
2015-Feb-28 22:33N 53°34' E 004°38'7 5.6
2015-Feb-28 21:22N 53°40' E 004°41'12 6.0
2015-Feb-28 19:23N 53°52' E 004°45'5 6.1
2015-Feb-28 18:33N 53°57' E 004°47'6 5.6
2015-Feb-28 17:33N 54°02' E 004°49'7 6.8
2015-Feb-28 16:31N 54°09' E 004°51'7 6.8
2015-Feb-28 15:28N 54°16' E 004°54'26711.1
2015-Feb-27 15:29N 58°43' E 005°11'1010.9
2015-Feb-27 14:34N 58°52' E 005°15'1111.0
2015-Feb-27 13:33N 59°03' E 005°19'10 9.7
2015-Feb-27 12:33N 59°11' E 005°31'6 0.5
2015-Feb-27 01:27N 59°16' E 005°30'2 2.6
2015-Feb-27 00:33N 59°14' E 005°31'6 6.1
2015-Feb-26 23:33N 59°08' E 005°29'1111.0
2015-Feb-26 22:33N 59°02' E 005°12'24812.4
2015-Feb-26 02:33N 58°43' W 002°47'1616.1
2015-Feb-26 01:33N 58°43' W 003°18'1515.0
2015-Feb-26 00:33N 58°43' W 003°47'1312.8
2015-Feb-25 23:33N 58°43' W 004°11'1413.7
2015-Feb-25 22:32N 58°43' W 004°39'18512.2
2015-Feb-25 07:21N 55°52' W 006°51'1113.9
2015-Feb-25 06:34N 55°42' W 006°43'1514.7
2015-Feb-25 05:33N 55°31' W 006°27'1313.3
2015-Feb-25 04:33N 55°25' W 006°06'1312.8
2015-Feb-25 03:33N 55°15' W 005°51'1212.3
2015-Feb-25 02:33N 55°04' W 005°41'1211.9
2015-Feb-25 01:31N 54°53' W 005°31'1111.5
2015-Feb-25 00:33N 54°43' W 005°23'1211.5
2015-Feb-24 23:33N 54°33' W 005°16'1212.4
2015-Feb-24 22:33N 54°21' W 005°10'  
Track history (hours):
 
Tides and Currents Weather Stations Pressure Air Temp Water Temp Dewpoint Dewpoint Depression Visibility Wind Speed Wind Dir Waves Ship Positions

Marianne

Last reported at 2015-Mar-04 05:14 UTC. Time now 2015-Mar-04 07:07 UTC.
Position N 51°49' E 003°24'.

Length 97 m; draft 5.5 m.

Type: Ship (hazmat cat B). MMSI: 477560836.

Date/timePositionNaut miles runAvg speedWind from/ knotsBaromVisibWave heightAir tempDewpointWater temp
2015-Mar-04 05:14N 51°49' E 003°24'0 0.0
2015-Mar-04 04:04N 51°49' E 003°24'0 0.0
2015-Mar-04 02:25N 51°49' E 003°24'0 0.0
2015-Mar-03 23:13N 51°49' E 003°24'0 0.0
2015-Mar-03 17:14N 51°49' E 003°24'0 0.0
2015-Mar-03 16:16N 51°49' E 003°24'0 0.0
2015-Mar-03 15:31N 51°49' E 003°24'0 0.0
2015-Mar-03 11:25N 51°49' E 003°24'0 0.0
2015-Mar-03 09:17N 51°49' E 003°24'0 0.0
2015-Mar-03 06:25N 51°49' E 003°24'0 0.0
2015-Mar-03 04:16N 51°49' E 003°24'0 0.0
2015-Mar-03 02:23N 51°49' E 003°24'0 0.0
2015-Mar-03 01:23N 51°49' E 003°24'0 0.0
2015-Mar-02 23:20N 51°49' E 003°24'0 0.0
2015-Mar-02 21:28N 51°49' E 003°24'0 0.0
2015-Mar-02 18:23N 51°49' E 003°23'0 0.1
2015-Mar-02 17:16N 51°49' E 003°24'0 0.0
2015-Mar-02 14:19N 51°49' E 003°24'0 0.0
2015-Mar-02 13:07N 51°49' E 003°24'0 0.0
2015-Mar-02 09:07N 51°49' E 003°23'0 0.0
2015-Mar-02 08:29N 51°49' E 003°23'0 0.0
2015-Mar-02 04:31N 51°49' E 003°23'0 0.0
2015-Mar-02 01:20N 51°49' E 003°23'0 0.0
2015-Mar-02 00:29N 51°49' E 003°23'0 0.0
2015-Mar-01 22:22N 51°49' E 003°23'0 0.0
2015-Mar-01 21:23N 51°49' E 003°23'0 0.0
2015-Mar-01 20:28N 51°49' E 003°23'0 0.0
2015-Mar-01 19:25N 51°49' E 003°23'0 0.0
2015-Mar-01 15:16N 51°49' E 003°23'3 1.8
2015-Mar-01 13:32N 51°52' E 003°21'105 7.8
2015-Mar-01 00:08N 53°26' E 004°33'3 4.5
2015-Feb-28 23:28N 53°29' E 004°35'5 5.6
2015-Feb-28 22:33N 53°34' E 004°38'7 5.6
2015-Feb-28 21:22N 53°40' E 004°41'12 6.0
2015-Feb-28 19:23N 53°52' E 004°45'5 6.1
2015-Feb-28 18:33N 53°57' E 004°47'6 5.6
2015-Feb-28 17:33N 54°02' E 004°49'7 6.8
2015-Feb-28 16:31N 54°09' E 004°51'7 6.8
2015-Feb-28 15:28N 54°16' E 004°54'26711.1
2015-Feb-27 15:29N 58°43' E 005°11'1010.9
2015-Feb-27 14:34N 58°52' E 005°15'1111.0
2015-Feb-27 13:33N 59°03' E 005°19'10 9.7
2015-Feb-27 12:33N 59°11' E 005°31'6 0.5
2015-Feb-27 01:27N 59°16' E 005°30'2 2.6
2015-Feb-27 00:33N 59°14' E 005°31'6 6.1
2015-Feb-26 23:33N 59°08' E 005°29'1111.0
2015-Feb-26 22:33N 59°02' E 005°12'24812.4
2015-Feb-26 02:33N 58°43' W 002°47'1616.1
2015-Feb-26 01:33N 58°43' W 003°18'1515.0
2015-Feb-26 00:33N 58°43' W 003°47'1312.8
2015-Feb-25 23:33N 58°43' W 004°11'1413.7
2015-Feb-25 22:32N 58°43' W 004°39'18512.2
2015-Feb-25 07:21N 55°52' W 006°51'1113.9
2015-Feb-25 06:34N 55°42' W 006°43'1514.7
2015-Feb-25 05:33N 55°31' W 006°27'1313.3
2015-Feb-25 04:33N 55°25' W 006°06'1312.8
2015-Feb-25 03:33N 55°15' W 005°51'1212.3
2015-Feb-25 02:33N 55°04' W 005°41'1211.9
2015-Feb-25 01:31N 54°53' W 005°31'1111.5
2015-Feb-25 00:33N 54°43' W 005°23'1211.5
2015-Feb-24 23:33N 54°33' W 005°16'1212.4
2015-Feb-24 22:33N 54°21' W 005°10'  

Dump ship's entire track history